METAR Data
IDs: Format: Raw Decoded Include TAF

Data at: 1114 UTC 18 Jan 2022

KFLY 181055Z AUTO 35006KT 10SM CLR M01/M08 A2988 RMK AO2 T10091081
KFLY 181035Z AUTO 35006KT 10SM CLR M01/M08 A2988 RMK AO2 T10091085
KFLY 181015Z AUTO 34006KT 10SM CLR M02/M08 A2988 RMK AO2 T10211085
KFLY 180955Z AUTO 31006KT 10SM CLR M02/M09 A2989 RMK AO2 T10241090
KFLY 180935Z AUTO 32006KT 10SM CLR M02/M09 A2989 RMK AO2 T10231089
KFLY 180915Z AUTO 30006KT 10SM CLR M02/M09 A2989 RMK AO2 T10231089
KFLY 180855Z AUTO 29005KT 10SM CLR M03/M09 A2989 RMK AO2 T10261092
KFLY 180835Z AUTO 29005KT 10SM CLR M02/M10 A2989 RMK AO2 T10181096
KFLY 180815Z AUTO 31005KT 10SM CLR M02/M10 A2990 RMK AO2 T10161096
KFLY 180755Z AUTO 30006KT 10SM CLR M01/M10 A2991 RMK AO2 T10121099
KFLY 180735Z AUTO 30005KT 10SM CLR 00/M10 A2991 RMK AO2 T00001101
KFLY 180715Z AUTO 28006KT 10SM CLR 00/M10 A2992 RMK AO2 T10031100
KFLY 180655Z AUTO 27006KT 10SM CLR 00/M10 A2992 RMK AO2 T00001105 401491069
KFLY 180635Z AUTO 28006KT 10SM CLR 00/M10 A2994 RMK AO2 T00001102
KFLY 180615Z AUTO 27008KT 10SM CLR 01/M11 A2994 RMK AO2 T00071106
KFLY 180555Z AUTO 28007KT 10SM CLR 01/M10 A2994 RMK AO2 T00091104 10070 20003
KFLY 180535Z AUTO 26006KT 10SM CLR 01/M11 A2994 RMK AO2 T00111106
KFLY 180515Z AUTO 24007KT 10SM CLR 01/M10 A2994 RMK AO2 T00111105
KFLY 180455Z AUTO 25006KT 10SM CLR 01/M10 A2994 RMK AO2 T00131105
KFLY 180435Z AUTO 23005KT 10SM CLR 02/M11 A2995 RMK AO2 T00191110
KFLY 180415Z AUTO 22004KT 10SM CLR 03/M11 A2996 RMK AO2 T00271109
KFLY 180355Z AUTO 23004KT 10SM CLR 02/M11 A2996 RMK AO2 T00241107
KFLY 180335Z AUTO 11004KT 10SM CLR 03/M11 A2996 RMK AO2 T00251110
KFLY 180315Z AUTO 22005KT 10SM CLR 02/M11 A2996 RMK AO2 T00191109
KFLY 180255Z AUTO 20005KT 10SM CLR 03/M11 A2997 RMK AO2 T00271108
KFLY 180235Z AUTO 20004KT 10SM CLR 03/M11 A2997 RMK AO2 T00311110
KFLY 180215Z AUTO 29004KT 10SM CLR 02/M11 A2997 RMK AO2 T00221107
KFLY 180155Z AUTO 26003KT 10SM CLR 03/M11 A2996 RMK AO2 T00311112
KFLY 180135Z AUTO 22004KT 10SM CLR 04/M11 A2996 RMK AO2 T00431111
KFLY 180115Z AUTO 22004KT 10SM CLR 04/M11 A2996 RMK AO2 T00421107
KFLY 180055Z AUTO 22006KT 10SM CLR 04/M10 A2996 RMK AO2 T00411105
KFLY 180035Z AUTO 24005KT 10SM CLR 05/M10 A2996 RMK AO2 T00451102
KFLY 180015Z AUTO 21007KT 10SM CLR 06/M10 A2995 RMK AO2 T00601100
KFLY 172355Z AUTO 21007KT 10SM CLR 07/M10 A2994 RMK AO2 T00721100 10149 20072
KFLY 172335Z AUTO 19006KT 10SM CLR 09/M10 A2994 RMK AO2 T00921100
KFLY 172315Z AUTO 19010KT 10SM CLR 12/M11 A2994 RMK AO2 T01191114
KFLY 172255Z AUTO 19010KT 10SM CLR 13/M12 A2993 RMK AO2 T01271120
KFLY 172235Z AUTO 18007KT 10SM CLR 14/M12 A2994 RMK AO2 T01371119
KFLY 172215Z AUTO 18003G15KT 10SM CLR 13/M12 A2994 RMK AO2 T01331120
KFLY 172155Z AUTO 18011G15KT 10SM CLR 14/M11 A2994 RMK AO2 T01421114
KFLY 172135Z AUTO 17005G14KT 10SM CLR 15/M11 A2994 RMK AO2 T01451113
KFLY 172115Z AUTO 17010G17KT 10SM CLR 15/M11 A2994 RMK AO2 T01481115
KFLY 172055Z AUTO 17008G14KT 10SM CLR 14/M12 A2994 RMK AO2 T01431116
KFLY 172035Z AUTO 18008G15KT 10SM CLR 14/M12 A2994 RMK AO2 T01421116
KFLY 172015Z AUTO 18009G15KT 10SM CLR 15/M11 A2995 RMK AO2 T01481114
KFLY 171955Z AUTO 17008G15KT 120V190 10SM CLR 15/M11 A2996 RMK AO2 T01451113
KFLY 171935Z AUTO 14008G14KT 10SM CLR 15/M11 A2998 RMK AO2 T01451113
KFLY 171915Z AUTO 13007G15KT 090V190 10SM CLR 15/M11 A2998 RMK AO2 T01461109
KFLY 171855Z AUTO 00000KT 10SM CLR 14/M11 A2999 RMK AO2 T01411112
KFLY 171835Z AUTO 10009G15KT 10SM CLR 14/M11 A3000 RMK AO2 T01391109
KFLY 171815Z AUTO 06003KT 10SM CLR 14/M11 A3002 RMK AO2 T01401112
KFLY 171755Z AUTO 09008KT 10SM CLR 14/M11 A3002 RMK AO2 T01361109 10137 21065
KFLY 171735Z AUTO 13003KT 10SM CLR 13/M11 A3002 RMK AO2 T01301112
KFLY 171715Z AUTO 00000KT 10SM CLR 13/M10 A3002 RMK AO2 T01311105
KFLY 171655Z AUTO 13003KT 10SM CLR 13/M11 A3002 RMK AO2 T01251107
KFLY 171635Z AUTO 08003KT 10SM CLR 12/M10 A3002 RMK AO2 T01181098
KFLY 171615Z AUTO 00000KT 10SM CLR 10/M09 A3002 RMK AO2 T01031094
KFLY 171555Z AUTO 31005KT 10SM CLR 08/M08 A3002 RMK AO2 T00811085
KFLY 171535Z AUTO 29008KT 10SM CLR 06/M08 A3002 RMK AO2 T00561085
KFLY 171515Z AUTO 30008KT 290V350 10SM CLR 03/M10 A3001 RMK AO2 T00341097
KFLY 171455Z AUTO 35007KT 310V010 10SM CLR 01/M10 A3001 RMK AO2 T00111103
KFLY 171435Z AUTO 34004KT 10SM CLR 00/M11 A3001 RMK AO2 T00031109
KFLY 171415Z AUTO 30010KT 10SM CLR 00/M10 A3000 RMK AO2 T00011102
KFLY 171355Z AUTO 30008KT 10SM CLR M01/M11 A3000 RMK AO2 T10141110
KFLY 171335Z AUTO 00000KT 10SM CLR M04/M11 A3000 RMK AO2 T10421106
KFLY 171315Z AUTO 28005KT 10SM CLR M04/M10 A3000 RMK AO2 T10441105
KFLY 171255Z AUTO 24005KT 10SM CLR M05/M11 A3000 RMK AO2 T10491106
KFLY 171235Z AUTO 25003KT 10SM CLR M05/M11 A3000 RMK AO2 T10531109
KFLY 171215Z AUTO 27003KT 10SM CLR M06/M11 A3001 RMK AO2 T10651110
KFLY 171155Z AUTO 00000KT 10SM CLR M06/M10 A3001 RMK AO2 T10631100 11036 21069
KFLY 171135Z AUTO 33003KT 10SM CLR M06/M10 A3001 RMK AO2 T10611104
KFLY 171115Z AUTO 32005KT 10SM CLR M05/M09 A3002 RMK AO2 T10491093
KFLY 171055Z AUTO 28011KT 10SM CLR M06/M09 A3003 RMK AO2 T10561093
KFLY 171035Z AUTO 30005KT 10SM CLR M06/M10 A3004 RMK AO2 T10621103
KFLY 171015Z AUTO 26005KT 10SM CLR M05/M10 A3005 RMK AO2 T10521101
KFLY 170955Z AUTO 26005KT 10SM CLR M05/M10 A3006 RMK AO2 T10531100
KFLY 170935Z AUTO 26005KT 10SM CLR M05/M10 A3006 RMK AO2 T10501099
KFLY 170915Z AUTO 27006KT 10SM CLR M05/M10 A3008 RMK AO2 T10511098
KFLY 170855Z AUTO 27005KT 10SM CLR M05/M10 A3008 RMK AO2 T10501097
KFLY 170835Z AUTO 25006KT 10SM CLR M04/M10 A3008 RMK AO2 T10431098
KFLY 170815Z AUTO 24006KT 10SM CLR M04/M10 A3009 RMK AO2 T10431099
KFLY 170755Z AUTO 24007KT 10SM CLR M04/M10 A3010 RMK AO2 T10391101
KFLY 170735Z AUTO 24006KT 10SM CLR M04/M10 A3011 RMK AO2 T10411097
KFLY 170715Z AUTO 24006KT 10SM CLR M04/M10 A3013 RMK AO2 T10431097
KFLY 170655Z AUTO 24006KT 10SM CLR M04/M09 A3013 RMK AO2 T10431095 401321050
KFLY 170635Z AUTO 24006KT 10SM CLR M04/M09 A3014 RMK AO2 T10441092
KFLY 170615Z AUTO 24007KT 10SM CLR M04/M09 A3014 RMK AO2 T10431092
KFLY 170555Z AUTO 24007KT 10SM CLR M04/M09 A3014 RMK AO2 T10401091 10033 21050
KFLY 170535Z AUTO 25006KT 10SM CLR M04/M09 A3015 RMK AO2 T10451093
KFLY 170515Z AUTO 23006KT 10SM CLR M03/M09 A3015 RMK AO2 T10351087
KFLY 170455Z AUTO 22004KT 10SM CLR M04/M09 A3014 RMK AO2 T10361087
KFLY 170435Z AUTO 28004KT 10SM CLR M04/M09 A3016 RMK AO2 T10431088
KFLY 170415Z AUTO 27003KT 10SM CLR M04/M09 A3014 RMK AO2 T10421094
KFLY 170355Z AUTO 35006G09KT 10SM CLR M03/M09 A3016 RMK AO2 T10301088
KFLY 170335Z AUTO 02009KT 10SM CLR M02/M09 A3016 RMK AO2 T10231090
KFLY 170315Z AUTO 36007KT 10SM CLR M02/M09 A3016 RMK AO2 T10221092
KFLY 170255Z AUTO 03007KT 10SM CLR M02/M10 A3016 RMK AO2 T10211096
KFLY 170235Z AUTO 02013KT 10SM CLR M01/M10 A3015 RMK AO2 T10141097
KFLY 170215Z AUTO 34009KT 10SM CLR M01/M10 A3016 RMK AO2 T10121098
KFLY 170155Z AUTO 35006KT 10SM CLR M01/M10 A3016 RMK AO2 T10081100
KFLY 170135Z AUTO 01011G15KT 10SM CLR M01/M10 A3015 RMK AO2 T10111102
KFLY 170115Z AUTO 04006KT 10SM CLR 01/M11 A3015 RMK AO2 T00051110
KFLY 170055Z AUTO 02009G14KT 10SM CLR 01/M11 A3014 RMK AO2 T00061110
KFLY 170035Z AUTO 36006KT 10SM CLR 01/M11 A3013 RMK AO2 T00051106
KFLY 170015Z AUTO 36003KT 10SM CLR 02/M11 A3013 RMK AO2 T00181112
KFLY 162355Z AUTO 04007KT 10SM CLR 04/M11 A3013 RMK AO2 T00361114 10132 20036
KFLY 162335Z AUTO 04005KT 10SM CLR 06/M13 A3012 RMK AO2 T00581128
KFLY 162315Z AUTO 21006KT 10SM CLR 08/M14 A3011 RMK AO2 T00771138